Time;durP1;ratioP1;P1;durP2;ratioP2;P2;SDS_P1;SDS_P2;PMS_P1;PMS_P2;Temp;Humidity;BMP_temperature;BMP_pressure;BME280_temperature;BME280_humidity;BME280_pressure;Samples;Min_cycle;Max_cycle;Signal;HPM_P1;HPM_P2
2024/04/13 00:00:30;;;;;;;1.20;0.90;;;;;;;13.08;63.41;99628.55;105615;1254;74589;-28
2024/04/13 00:02:57;;;;;;;2.00;1.00;;;;;;;13.70;61.33;99626.39;105656;1254;74275;-28
2024/04/13 00:05:26;;;;;;;1.80;1.30;;;;;;;13.81;60.66;99620.70;105795;1251;72815;-28
2024/04/13 00:07:55;;;;;;;1.50;0.90;;;;;;;13.70;60.54;99621.36;105729;1257;61343;-27
2024/04/13 00:10:25;;;;;;;1.90;1.30;;;;;;;13.47;61.08;99619.08;105799;1251;61244;-27
2024/04/13 00:12:53;;;;;;;2.70;1.40;;;;;;;13.22;61.83;99615.17;105641;1251;74638;-28
2024/04/13 00:15:21;;;;;;;2.90;1.40;;;;;;;13.02;62.51;99616.64;105508;1254;73483;-27
2024/04/13 00:17:48;;;;;;;5.50;1.10;;;;;;;12.81;63.04;99613.69;105593;1254;72676;-27
2024/04/13 00:20:16;;;;;;;1.10;0.90;;;;;;;12.56;63.93;99611.02;105609;1257;61690;-27
2024/04/13 00:22:44;;;;;;;3.50;1.40;;;;;;;13.05;63.68;99600.89;105674;1256;61359;-27
2024/04/13 00:25:13;;;;;;;1.60;1.00;;;;;;;13.63;61.72;99603.09;105781;1257;74703;-27
2024/04/13 00:27:41;;;;;;;2.90;1.20;;;;;;;13.60;61.31;99607.84;105882;1257;73015;-28
2024/04/13 00:30:10;;;;;;;2.60;1.30;;;;;;;13.35;61.85;99607.48;105919;1254;71504;-27
2024/04/13 00:32:38;;;;;;;2.10;1.10;;;;;;;13.11;62.43;99606.49;105698;1254;61353;-27
2024/04/13 00:35:06;;;;;;;4.40;1.40;;;;;;;12.92;62.82;99604.77;105887;1254;61260;-27
2024/04/13 00:37:33;;;;;;;7.00;1.60;;;;;;;12.74;63.04;99599.94;105638;1257;73323;-27
2024/04/13 00:40:01;;;;;;;2.00;1.10;;;;;;;12.56;63.55;99598.25;105678;1254;74290;-27
2024/04/13 00:42:28;;;;;;;1.80;0.90;;;;;;;12.34;64.30;99592.70;105666;1254;71935;-27
2024/04/13 00:45:03;;;;;;;1.30;1.10;;;;;;;12.81;63.98;99580.55;105661;1257;61259;-27
2024/04/13 00:47:34;;;;;;;2.70;1.50;;;;;;;13.46;61.87;99580.30;105873;1253;61293;-27
2024/04/13 00:50:03;;;;;;;4.00;1.30;;;;;;;13.59;61.02;99572.90;105681;1255;74624;-27
2024/04/13 00:52:30;;;;;;;4.10;1.10;;;;;;;13.42;61.04;99577.41;105695;1260;73247;-27
2024/04/13 00:54:58;;;;;;;1.80;1.10;;;;;;;13.16;61.63;99575.09;105560;1254;72661;-27
2024/04/13 00:57:27;;;;;;;1.90;1.20;;;;;;;12.86;62.54;99573.22;105743;1254;61346;-27
2024/04/13 00:59:54;;;;;;;2.10;1.30;;;;;;;12.51;63.36;99581.43;105845;1254;61225;-27
2024/04/13 01:02:21;;;;;;;2.10;1.50;;;;;;;12.17;64.85;99589.01;105660;1251;74748;-27
2024/04/13 01:04:49;;;;;;;2.20;0.80;;;;;;;11.92;66.21;99589.56;105726;1251;73581;-27
2024/04/13 01:07:17;;;;;;;1.90;1.10;;;;;;;12.48;65.58;99584.94;105591;1251;71701;-28
2024/04/13 01:09:48;;;;;;;2.90;1.40;;;;;;;13.18;63.25;99573.70;105489;1254;61346;-27
2024/04/13 01:12:15;;;;;;;2.90;1.50;;;;;;;13.37;62.01;99567.57;105543;1256;61462;-27
2024/04/13 01:14:44;;;;;;;1.80;1.20;;;;;;;13.31;61.75;99559.21;105701;1254;74630;-27
2024/04/13 01:17:12;;;;;;;2.00;1.40;;;;;;;13.18;62.10;99563.08;105891;1254;72242;-27
2024/04/13 01:19:41;;;;;;;3.20;1.40;;;;;;;12.95;63.22;99564.28;105881;1251;71483;-28
2024/04/13 01:22:09;;;;;;;2.60;1.50;;;;;;;12.79;63.74;99571.17;105859;1258;61321;-27
2024/04/13 01:24:40;;;;;;;2.30;1.30;;;;;;;12.62;64.31;99562.46;105889;1251;61299;-27
2024/04/13 01:27:08;;;;;;;4.10;1.60;;;;;;;13.16;63.86;99560.91;105789;1254;74595;-27
2024/04/13 01:29:36;;;;;;;4.10;1.50;;;;;;;13.80;61.93;99559.59;105587;1253;74395;-27
2024/04/13 01:32:04;;;;;;;2.70;1.50;;;;;;;13.95;60.90;99550.79;105641;1257;72671;-27
2024/04/13 01:34:32;;;;;;;1.80;1.30;;;;;;;13.88;60.60;99548.23;105479;1254;61442;-27
2024/04/13 01:36:59;;;;;;;1.50;1.30;;;;;;;13.74;60.62;99548.17;105800;1256;61751;-27
2024/04/13 01:39:27;;;;;;;3.20;1.80;;;;;;;13.61;60.92;99542.58;105778;1257;74646;-27
2024/04/13 01:41:54;;;;;;;3.30;1.60;;;;;;;13.48;61.13;99537.73;105739;1254;73225;-27
2024/04/13 01:44:22;;;;;;;2.80;1.50;;;;;;;13.33;61.62;99537.23;105753;1254;72721;-27
2024/04/13 01:46:50;;;;;;;1.70;1.00;;;;;;;13.05;62.80;99541.48;105653;1254;61330;-27
2024/04/13 01:49:17;;;;;;;3.50;1.40;;;;;;;13.46;62.91;99537.02;105878;1251;61417;-27
2024/04/13 01:51:45;;;;;;;2.40;1.60;;;;;;;14.02;61.18;99537.42;105646;1257;74694;-27
2024/04/13 01:54:12;;;;;;;1.80;1.60;;;;;;;14.10;60.20;99538.63;105831;1257;72949;-27
2024/04/13 01:56:39;;;;;;;1.80;1.20;;;;;;;13.95;60.22;99540.13;105761;1254;72753;-27
2024/04/13 01:59:08;;;;;;;2.70;1.40;;;;;;;13.65;60.65;99540.27;105600;1253;61244;-28
2024/04/13 02:01:36;;;;;;;2.70;1.70;;;;;;;13.36;61.65;99533.80;105818;1257;61249;-27
2024/04/13 02:04:04;;;;;;;1.80;1.50;;;;;;;13.11;62.80;99540.23;105843;1253;74766;-27
2024/04/13 02:06:32;;;;;;;3.30;1.50;;;;;;;12.87;63.63;99536.66;105630;1254;74449;-27
2024/04/13 02:09:00;;;;;;;1.80;1.10;;;;;;;12.76;63.87;99535.02;105752;1257;71395;-27
2024/04/13 02:11:27;;;;;;;2.40;1.30;;;;;;;13.39;63.06;99531.83;105664;1253;61353;-27
2024/04/13 02:13:55;;;;;;;4.90;1.50;;;;;;;14.12;60.76;99534.14;105853;1253;61286;-28
2024/04/13 02:16:22;;;;;;;2.10;1.70;;;;;;;14.23;60.00;99534.34;105615;1259;74572;-27
2024/04/13 02:18:50;;;;;;;4.00;1.60;;;;;;;14.12;59.96;99535.14;105629;1254;74394;-27
2024/04/13 02:21:17;;;;;;;2.10;1.70;;;;;;;13.95;60.29;99532.61;105579;1253;72810;-27
2024/04/13 02:23:45;;;;;;;2.20;1.80;;;;;;;13.82;60.55;99529.73;105448;1254;62847;-27
2024/04/13 02:26:12;;;;;;;2.60;1.80;;;;;;;13.68;60.96;99526.78;105785;1257;61232;-28
2024/04/13 02:28:40;;;;;;;2.00;1.60;;;;;;;13.54;61.41;99530.08;105676;1253;74618;-27
2024/04/13 02:31:08;;;;;;;2.30;1.00;;;;;;;13.33;61.91;99524.13;105655;1254;74406;-27
2024/04/13 02:33:35;;;;;;;1.60;1.30;;;;;;;13.82;61.71;99518.77;105543;1257;72683;-27
2024/04/13 02:36:04;;;;;;;3.60;1.70;;;;;;;14.43;60.10;99518.48;105502;1257;61176;-27
2024/04/13 02:38:32;;;;;;;2.20;1.70;;;;;;;14.58;59.24;99517.96;105728;1260;61248;-27
2024/04/13 02:41:00;;;;;;;4.30;1.50;;;;;;;14.48;59.47;99519.25;105824;1257;74641;-27
2024/04/13 02:43:31;;;;;;;2.10;1.50;;;;;;;14.26;60.40;99516.95;105745;1259;74347;-27
2024/04/13 02:46:08;;;;;;;3.50;1.50;;;;;;;14.05;60.80;99521.77;105663;1254;72637;-27
2024/04/13 02:48:37;;;;;;;2.80;1.80;;;;;;;13.67;62.61;99525.24;105562;1253;61378;-27
2024/04/13 02:51:05;;;;;;;4.00;1.90;;;;;;;13.41;63.18;99524.16;105497;1251;61357;-27
2024/04/13 02:53:34;;;;;;;1.50;1.10;;;;;;;13.23;63.94;99521.84;105593;1252;74660;-27
2024/04/13 02:56:03;;;;;;;3.10;1.60;;;;;;;13.81;62.92;99525.83;105618;1257;74383;-27
2024/04/13 02:58:30;;;;;;;6.30;2.20;;;;;;;14.38;61.08;99528.16;105803;1254;70412;-27
2024/04/13 03:00:59;;;;;;;4.40;2.00;;;;;;;14.39;60.43;99531.90;105710;1257;61424;-27
2024/04/13 03:03:26;;;;;;;6.30;1.80;;;;;;;14.23;61.24;99531.92;105894;1251;61378;-27
2024/04/13 03:06:09;;;;;;;4.20;1.90;;;;;;;13.99;61.73;99532.26;105899;1257;74678;-27
2024/04/13 03:08:36;;;;;;;3.20;1.70;;;;;;;13.77;62.58;99530.83;105675;1251;73329;-27
2024/04/13 03:11:04;;;;;;;3.10;1.90;;;;;;;13.65;62.85;99529.13;105554;1258;72371;-27
2024/04/13 03:13:31;;;;;;;2.50;1.70;;;;;;;13.56;63.15;99526.98;105670;1253;61357;-27
2024/04/13 03:16:06;;;;;;;2.50;1.20;;;;;;;13.35;64.25;99521.71;105859;1257;61102;-27
2024/04/13 03:18:37;;;;;;;3.50;1.50;;;;;;;13.90;63.57;99527.96;105861;1257;73482;-27
2024/04/13 03:21:07;;;;;;;3.10;1.70;;;;;;;14.48;61.47;99526.55;105746;1253;74233;-27
2024/04/13 03:23:36;;;;;;;3.30;1.90;;;;;;;14.58;60.79;99526.87;105841;1257;71470;-27
2024/04/13 03:26:03;;;;;;;3.30;1.80;;;;;;;14.44;61.05;99523.44;105608;1251;61323;-28
2024/04/13 03:28:35;;;;;;;3.30;2.10;;;;;;;14.31;61.31;99519.13;105871;1251;61263;-28
2024/04/13 03:31:03;;;;;;;4.10;1.80;;;;;;;14.07;62.00;99519.36;105541;1251;74625;-27
2024/04/13 03:33:31;;;;;;;3.70;2.10;;;;;;;13.79;63.00;99520.89;105580;1253;74448;-27
2024/04/13 03:36:00;;;;;;;3.20;2.20;;;;;;;13.68;63.05;99517.69;105810;1255;72724;-27
2024/04/13 03:38:28;;;;;;;3.80;2.00;;;;;;;13.49;64.05;99512.36;105687;1251;61344;-27
2024/04/13 03:41:00;;;;;;;3.10;1.70;;;;;;;14.09;63.23;99513.80;105714;1251;61507;-27
2024/04/13 03:43:28;;;;;;;7.10;1.70;;;;;;;14.78;61.06;99507.83;105586;1260;73513;-27
2024/04/13 03:45:57;;;;;;;3.60;2.20;;;;;;;14.89;60.04;99508.04;105618;1251;74527;-28
2024/04/13 03:48:24;;;;;;;3.30;2.00;;;;;;;14.73;60.37;99509.52;105628;1257;72721;-27
2024/04/13 03:50:52;;;;;;;3.80;1.80;;;;;;;14.42;61.16;99510.00;105730;1255;61343;-27
2024/04/13 03:53:20;;;;;;;2.60;1.90;;;;;;;14.22;61.86;99509.45;105433;1259;61390;-27
2024/04/13 03:55:48;;;;;;;4.70;1.70;;;;;;;14.02;62.49;99507.71;105686;1253;74561;-28
2024/04/13 03:58:15;;;;;;;4.10;2.00;;;;;;;13.85;63.48;99506.66;105708;1259;73448;-27
2024/04/13 04:00:43;;;;;;;3.10;1.60;;;;;;;13.65;64.35;99509.60;105646;1257;71467;-27
2024/04/13 04:03:10;;;;;;;2.90;1.50;;;;;;;14.22;63.06;99510.55;105802;1257;61347;-28
2024/04/13 04:05:38;;;;;;;7.10;2.10;;;;;;;14.80;61.28;99515.52;105697;1252;61157;-28
2024/04/13 04:08:07;;;;;;;5.90;2.10;;;;;;;14.86;61.01;99512.16;105743;1252;73442;-28
2024/04/13 04:10:34;;;;;;;3.50;2.00;;;;;;;14.75;61.13;99510.39;105606;1257;74350;-27
2024/04/13 04:13:02;;;;;;;3.20;2.40;;;;;;;14.56;61.79;99509.95;105590;1258;72623;-27
2024/04/13 04:15:30;;;;;;;3.90;1.90;;;;;;;14.41;62.23;99511.67;105829;1257;61320;-26
2024/04/13 04:17:57;;;;;;;3.10;1.90;;;;;;;14.21;62.81;99507.70;105739;1252;61279;-28
2024/04/13 04:20:25;;;;;;;3.70;2.20;;;;;;;14.05;63.67;99510.11;105578;1254;74708;-27
2024/04/13 04:22:52;;;;;;;2.30;1.70;;;;;;;13.84;64.51;99506.17;105551;1253;74480;-28
2024/04/13 04:25:20;;;;;;;6.20;2.00;;;;;;;14.40;63.54;99510.56;105618;1257;71563;-28
2024/04/13 04:27:48;;;;;;;3.90;2.10;;;;;;;15.00;61.39;99501.08;105675;1255;61283;-28
2024/04/13 04:30:17;;;;;;;3.10;2.20;;;;;;;15.08;61.02;99502.45;105913;1253;61310;-28
2024/04/13 04:32:45;;;;;;;3.40;2.00;;;;;;;14.96;61.24;99500.37;105676;1253;73886;-28
2024/04/13 04:35:13;;;;;;;5.00;2.40;;;;;;;14.79;61.83;99496.91;105848;1258;73093;-28
2024/04/13 04:37:40;;;;;;;3.10;2.20;;;;;;;14.62;61.99;99489.46;105734;1254;72714;-28
2024/04/13 04:40:08;;;;;;;3.20;2.30;;;;;;;14.46;61.96;99484.83;105786;1253;61274;-28
2024/04/13 04:42:36;;;;;;;3.40;2.40;;;;;;;14.34;62.96;99486.79;105701;1257;61184;-28
2024/04/13 04:45:07;;;;;;;4.00;2.10;;;;;;;14.19;63.99;99492.80;105834;1254;74653;-27
2024/04/13 04:47:35;;;;;;;8.00;2.20;;;;;;;14.65;63.41;99492.17;105628;1260;74456;-28
2024/04/13 04:50:03;;;;;;;4.60;2.20;;;;;;;15.18;61.76;99489.34;105855;1257;72737;-28
2024/04/13 04:52:32;;;;;;;3.20;2.50;;;;;;;15.23;60.99;99489.02;105935;1253;61331;-28
2024/04/13 04:55:01;;;;;;;3.30;2.40;;;;;;;15.10;61.49;99491.27;105841;1251;61390;-28
2024/04/13 04:57:29;;;;;;;3.00;2.70;;;;;;;14.83;62.40;99498.15;105926;1255;74389;-28
2024/04/13 04:59:57;;;;;;;4.20;2.80;;;;;;;14.61;63.37;99500.20;105717;1258;74390;-28
2024/04/13 05:02:24;;;;;;;6.40;2.80;;;;;;;14.47;63.77;99502.89;105619;1253;72525;-28
2024/04/13 05:04:52;;;;;;;3.50;2.20;;;;;;;14.21;64.94;99502.22;105594;1253;61238;-28
2024/04/13 05:07:19;;;;;;;2.50;1.40;;;;;;;14.65;63.97;99500.77;105634;1251;61301;-27
2024/04/13 05:09:47;;;;;;;4.60;3.00;;;;;;;15.21;62.44;99501.24;105653;1257;74630;-28
2024/04/13 05:12:15;;;;;;;5.00;2.80;;;;;;;15.26;62.12;99498.18;105774;1251;73172;-28
2024/04/13 05:14:42;;;;;;;5.90;3.20;;;;;;;15.17;62.26;99496.89;105568;1254;72731;-28
2024/04/13 05:17:13;;;;;;;3.60;3.00;;;;;;;15.02;63.35;99497.38;105560;1254;61266;-28
2024/04/13 05:19:40;;;;;;;5.00;3.00;;;;;;;14.77;63.84;99493.02;105820;1251;61387;-28
2024/04/13 05:22:08;;;;;;;5.00;2.80;;;;;;;14.70;64.11;99493.85;105901;1253;74032;-28
2024/04/13 05:24:37;;;;;;;3.10;2.40;;;;;;;14.52;65.20;99491.10;105699;1257;73464;-28
2024/04/13 05:27:06;;;;;;;3.70;2.60;;;;;;;15.05;64.08;99491.72;105735;1253;71180;-28
2024/04/13 05:29:35;;;;;;;5.00;2.80;;;;;;;15.57;61.96;99489.98;105775;1254;61205;-28
2024/04/13 05:32:03;;;;;;;5.30;2.80;;;;;;;15.65;61.62;99487.29;105738;1254;61230;-27
2024/04/13 05:34:31;;;;;;;3.80;2.90;;;;;;;15.55;61.73;99485.46;105520;1258;74706;-28
2024/04/13 05:36:58;;;;;;;4.60;3.30;;;;;;;15.41;62.43;99480.11;105612;1251;74437;-27
2024/04/13 05:39:29;;;;;;;5.30;3.50;;;;;;;15.46;62.53;99479.35;105794;1252;70470;-27
2024/04/13 05:41:57;;;;;;;7.80;3.30;;;;;;;15.45;63.35;99476.42;105647;1260;61260;-29
2024/04/13 05:44:24;;;;;;;3.90;2.90;;;;;;;15.38;63.28;99472.87;105636;1251;61719;-28
2024/04/13 05:46:52;;;;;;;6.00;3.00;;;;;;;15.82;61.43;99473.87;105721;1257;74091;-27
2024/04/13 05:49:20;;;;;;;7.40;3.60;;;;;;;16.19;59.97;99470.83;105686;1258;74293;-28
2024/04/13 05:51:48;;;;;;;4.60;3.40;;;;;;;16.12;60.51;99472.34;105723;1257;72742;-28
2024/04/13 05:54:16;;;;;;;5.30;3.50;;;;;;;16.14;60.78;99476.50;105747;1256;61262;-28
2024/04/13 05:56:44;;;;;;;4.80;2.90;;;;;;;15.92;60.75;99482.83;105677;1251;61222;-28
2024/04/13 05:59:11;;;;;;;6.80;3.10;;;;;;;15.82;61.04;99484.46;105663;1251;74847;-28
2024/04/13 06:01:41;;;;;;;6.80;3.30;;;;;;;15.68;61.42;99480.39;105691;1257;72219;-28
2024/04/13 06:04:09;;;;;;;5.80;3.10;;;;;;;15.57;61.97;99476.91;105798;1251;72022;-28
2024/04/13 06:06:37;;;;;;;6.10;3.50;;;;;;;16.00;61.44;99482.04;105655;1252;61343;-28
2024/04/13 06:09:05;;;;;;;4.80;2.80;;;;;;;16.30;59.27;99473.41;105714;1252;61302;-28
2024/04/13 06:11:33;;;;;;;6.50;3.30;;;;;;;16.51;58.79;99475.38;105720;1252;74737;-28
2024/04/13 06:14:01;;;;;;;5.50;3.20;;;;;;;16.40;58.89;99476.45;105629;1259;74752;-28
2024/04/13 06:16:28;;;;;;;8.90;2.70;;;;;;;16.36;59.57;99473.46;105612;1256;72687;-28
2024/04/13 06:18:56;;;;;;;2.60;2.20;;;;;;;16.33;59.22;99471.64;105549;1257;61305;-28
2024/04/13 06:21:26;;;;;;;5.30;2.80;;;;;;;16.27;59.25;99469.34;105765;1253;61226;-28
2024/04/13 06:23:54;;;;;;;4.70;2.90;;;;;;;16.18;59.56;99468.81;105707;1254;74178;-28
2024/04/13 06:26:21;;;;;;;6.30;3.00;;;;;;;16.13;59.57;99468.68;105676;1257;74435;-28
2024/04/13 06:28:51;;;;;;;7.40;2.40;;;;;;;16.20;60.04;99468.08;105754;1256;72658;-28
2024/04/13 06:31:19;;;;;;;5.80;2.90;;;;;;;16.85;57.22;99461.80;105439;1255;61319;-28
2024/04/13 06:33:46;;;;;;;4.00;2.80;;;;;;;17.23;56.23;99466.97;105943;1257;61239;-28
2024/04/13 06:36:15;;;;;;;3.30;2.10;;;;;;;17.30;56.66;99467.45;105836;1253;74683;-28
2024/04/13 06:38:43;;;;;;;3.50;2.90;;;;;;;17.33;55.71;99468.36;105873;1253;73214;-28
2024/04/13 06:41:11;;;;;;;6.60;3.10;;;;;;;17.17;55.85;99467.58;102332;1253;4726493;-28
2024/04/13 06:43:38;;;;;;;5.20;2.30;;;;;;;16.85;56.67;99468.50;105568;1261;61855;-28
2024/04/13 06:46:06;;;;;;;4.30;3.40;;;;;;;16.61;56.96;99466.44;105716;1252;61323;-28
2024/04/13 06:48:35;;;;;;;4.80;2.40;;;;;;;16.45;57.75;99462.95;105505;1251;75757;-28
2024/04/13 06:51:03;;;;;;;4.90;3.00;;;;;;;16.50;57.78;99466.16;105683;1253;73908;-28
2024/04/13 06:53:30;;;;;;;4.50;3.40;;;;;;;16.45;57.96;99472.23;105732;1257;72722;-28
2024/04/13 06:55:58;;;;;;;4.30;3.00;;;;;;;16.27;58.21;99472.98;105627;1257;61242;-28
2024/04/13 06:58:25;;;;;;;5.70;3.00;;;;;;;16.21;58.16;99473.77;105544;1254;61302;-28
2024/04/13 07:00:54;;;;;;;4.30;3.10;;;;;;;16.08;59.59;99469.02;105655;1253;74671;-28
2024/04/13 07:03:22;;;;;;;6.00;2.40;;;;;;;16.45;58.60;99468.17;105698;1258;72492;-28
2024/04/13 07:05:57;;;;;;;4.60;3.40;;;;;;;16.62;57.53;99466.19;105636;1257;72855;-28
2024/04/13 07:08:25;;;;;;;13.90;3.50;;;;;;;16.53;57.41;99468.30;105652;1253;61449;-28
2024/04/13 07:10:54;;;;;;;5.20;3.00;;;;;;;16.57;57.25;99469.22;105460;1253;61321;-27
2024/04/13 07:13:22;;;;;;;4.20;2.80;;;;;;;16.72;57.54;99468.52;105685;1253;75083;-27
2024/04/13 07:15:50;;;;;;;8.00;3.20;;;;;;;16.66;57.45;99473.29;105533;1253;73352;-28
2024/04/13 07:18:18;;;;;;;4.30;2.50;;;;;;;16.58;57.62;99468.02;105564;1253;72701;-28
2024/04/13 07:20:45;;;;;;;5.00;3.10;;;;;;;16.52;57.32;99465.76;105832;1256;61321;-27
2024/04/13 07:23:15;;;;;;;4.50;2.90;;;;;;;16.55;57.57;99466.56;105661;1257;61296;-27
2024/04/13 07:25:43;;;;;;;4.50;2.50;;;;;;;16.61;57.88;99466.14;105947;1253;76627;-27
2024/04/13 07:28:11;;;;;;;3.10;1.70;;;;;;;16.55;56.54;99459.69;105694;1255;75931;-30
2024/04/13 07:30:39;;;;;;;4.50;2.60;;;;;;;16.76;56.27;99459.95;105668;1253;72725;-28
2024/04/13 07:33:06;;;;;;;6.40;2.70;;;;;;;16.78;55.81;99457.27;105729;1257;61158;-28
2024/04/13 07:35:34;;;;;;;5.20;2.70;;;;;;;16.98;55.66;99459.80;105531;1253;61314;-27
2024/04/13 07:38:02;;;;;;;3.90;2.50;;;;;;;17.18;55.03;99455.73;105804;1257;75236;-28
2024/04/13 07:40:30;;;;;;;7.10;2.70;;;;;;;17.06;55.34;99455.90;105795;1257;76682;-27
2024/04/13 07:42:57;;;;;;;4.10;2.30;;;;;;;17.24;54.38;99452.92;105687;1254;71782;-28
2024/04/13 07:45:25;;;;;;;4.80;1.90;;;;;;;17.31;54.20;99448.35;105676;1259;61264;-27
2024/04/13 07:47:53;;;;;;;2.50;2.20;;;;;;;17.30;54.02;99447.48;105732;1253;61358;-28
2024/04/13 07:50:20;;;;;;;4.20;2.70;;;;;;;17.12;55.17;99442.75;105833;1253;74692;-27
2024/04/13 07:52:48;;;;;;;3.70;2.90;;;;;;;17.09;55.12;99443.23;105735;1251;73790;-27
2024/04/13 07:55:16;;;;;;;6.30;3.20;;;;;;;17.19;55.13;99441.54;105745;1254;72880;-27
2024/04/13 07:57:44;;;;;;;3.40;2.30;;;;;;;17.38;54.21;99431.39;105918;1253;62887;-25
2024/04/13 08:00:13;;;;;;;5.80;3.30;;;;;;;17.39;54.51;99433.56;105783;1251;61235;-27
2024/04/13 08:02:40;;;;;;;6.40;2.50;;;;;;;17.40;54.47;99429.79;105627;1259;74676;-26
2024/04/13 08:05:08;;;;;;;4.20;3.00;;;;;;;17.63;53.89;99431.59;105885;1257;72459;-27
2024/04/13 08:07:36;;;;;;;3.30;2.80;;;;;;;17.79;54.06;99432.00;105751;1257;71950;-26
2024/04/13 08:10:04;;;;;;;6.50;2.80;;;;;;;17.94;53.87;99428.41;105720;1254;62734;-27
2024/04/13 08:12:32;;;;;;;4.00;2.20;;;;;;;17.77;53.40;99422.23;105901;1253;61215;-26
2024/04/13 08:14:59;;;;;;;3.20;1.80;;;;;;;17.94;53.08;99414.95;105681;1257;73466;-26
2024/04/13 08:17:28;;;;;;;3.20;2.20;;;;;;;18.19;51.40;99412.74;105692;1253;73489;-26
2024/04/13 08:19:56;;;;;;;3.20;2.10;;;;;;;18.24;51.18;99418.48;105704;1253;74700;-26
2024/04/13 08:22:24;;;;;;;3.00;2.10;;;;;;;18.51;49.84;99405.80;105904;1253;61304;-26
2024/04/13 08:24:53;;;;;;;3.10;2.30;;;;;;;18.64;49.00;99399.23;105857;1251;61296;-26
2024/04/13 08:27:21;;;;;;;3.20;2.10;;;;;;;18.87;48.84;99404.46;105691;1258;74709;-26
2024/04/13 08:29:49;;;;;;;2.80;2.00;;;;;;;18.90;49.09;99403.84;105801;1257;73644;-26
2024/04/13 08:32:17;;;;;;;3.80;1.70;;;;;;;18.92;49.34;99405.76;105503;1254;73349;-26
2024/04/13 08:34:45;;;;;;;4.30;1.90;;;;;;;18.98;48.38;99395.84;105675;1257;61823;-26
2024/04/13 08:37:12;;;;;;;3.40;2.50;;;;;;;18.74;48.42;99392.68;105650;1252;61252;-27
2024/04/13 08:39:41;;;;;;;3.00;1.90;;;;;;;18.69;49.66;99395.12;105840;1253;77390;-27
2024/04/13 08:42:10;;;;;;;2.90;2.30;;;;;;;18.96;48.75;99396.80;105808;1253;76428;-27
2024/04/13 08:44:41;;;;;;;2.90;2.40;;;;;;;18.66;48.77;99394.81;105871;1252;73358;-28
2024/04/13 08:47:08;;;;;;;4.50;2.30;;;;;;;18.56;49.51;99387.80;105637;1253;61369;-27
2024/04/13 08:49:39;;;;;;;2.90;1.60;;;;;;;18.41;50.03;99378.85;105578;1253;61220;-27
2024/04/13 08:52:08;;;;;;;4.00;2.20;;;;;;;18.27;49.46;99373.23;105543;1253;75414;-27
2024/04/13 08:54:35;;;;;;;3.70;3.00;;;;;;;17.93;50.67;99373.02;105887;1257;75015;-27
2024/04/13 08:57:05;;;;;;;3.60;2.70;;;;;;;17.68;50.81;99380.13;105672;1253;72577;-26
2024/04/13 08:59:33;;;;;;;3.00;2.10;;;;;;;17.41;52.18;99375.44;105597;1254;61372;-26
2024/04/13 09:02:04;;;;;;;3.80;2.40;;;;;;;17.42;52.04;99374.41;105696;1257;61311;-27
2024/04/13 09:04:36;;;;;;;6.10;2.30;;;;;;;17.65;52.09;99373.59;105667;1260;74657;-27
2024/04/13 09:07:04;;;;;;;3.70;2.70;;;;;;;17.75;51.93;99373.27;105841;1257;77171;-27
2024/04/13 09:09:33;;;;;;;2.70;1.60;;;;;;;17.83;52.15;99369.42;105842;1253;73810;-27
2024/04/13 09:12:01;;;;;;;4.80;2.20;;;;;;;17.78;51.85;99363.62;105714;1253;62915;-27
2024/04/13 09:14:28;;;;;;;3.90;2.20;;;;;;;17.54;52.72;99364.40;105717;1253;61242;-27
2024/04/13 09:16:56;;;;;;;4.00;2.20;;;;;;;17.69;52.48;99360.89;105711;1253;74676;-27
2024/04/13 09:19:24;;;;;;;11.90;2.20;;;;;;;17.68;52.39;99368.95;105730;1254;77177;-27
2024/04/13 09:21:51;;;;;;;6.80;2.70;;;;;;;17.55;52.66;99367.86;105825;1253;74818;-27
2024/04/13 09:24:19;;;;;;;4.70;2.70;;;;;;;17.53;53.17;99367.20;105579;1254;61515;-27
2024/04/13 09:26:47;;;;;;;6.00;3.10;;;;;;;17.55;53.39;99370.76;105899;1252;62636;-27
2024/04/13 09:29:25;;;;;;;3.70;2.80;;;;;;;17.43;53.93;99361.91;105704;1253;74810;-27
2024/04/13 09:31:53;;;;;;;5.60;2.70;;;;;;;17.50;54.51;99364.98;105425;1253;74733;-27
2024/04/13 09:34:21;;;;;;;4.20;2.50;;;;;;;17.78;54.36;99362.64;105608;1254;72736;-27
2024/04/13 09:36:49;;;;;;;4.50;3.20;;;;;;;18.05;53.55;99357.00;105854;1251;61496;-28
2024/04/13 09:39:20;;;;;;;7.30;3.70;;;;;;;18.33;52.37;99354.41;105777;1257;62741;-27
2024/04/13 09:41:49;;;;;;;9.20;3.90;;;;;;;18.48;52.31;99344.80;105700;1259;77366;-27
2024/04/13 09:44:27;;;;;;;4.40;2.90;;;;;;;18.13;53.55;99338.55;105749;1257;77005;-26
2024/04/13 09:46:55;;;;;;;8.10;3.70;;;;;;;18.39;52.29;99331.02;105542;1258;74448;-27
2024/04/13 09:49:23;;;;;;;6.20;3.80;;;;;;;18.46;52.67;99332.34;105598;1260;61239;-27
2024/04/13 09:51:51;;;;;;;5.70;4.30;;;;;;;18.40;53.69;99334.83;105709;1254;61269;-27
2024/04/13 09:54:20;;;;;;;8.30;4.40;;;;;;;18.31;53.14;99329.52;105862;1254;75740;-28
2024/04/13 09:56:47;;;;;;;6.10;3.50;;;;;;;18.14;53.13;99323.63;105905;1254;77129;-28
2024/04/13 09:59:17;;;;;;;5.70;3.50;;;;;;;18.04;53.76;99334.40;105791;1258;72942;-27
2024/04/13 10:01:45;;;;;;;9.80;4.30;;;;;;;18.18;53.96;99328.84;105824;1253;61464;-27
2024/04/13 10:04:13;;;;;;;7.50;3.50;;;;;;;18.22;53.16;99325.74;105710;1253;61220;-27
2024/04/13 10:06:43;;;;;;;7.40;3.70;;;;;;;18.50;53.19;99325.41;105763;1260;74651;-27
2024/04/13 10:09:19;;;;;;;6.70;3.80;;;;;;;18.43;53.05;99312.80;105869;1253;77134;-27
2024/04/13 10:11:49;;;;;;;5.90;3.90;;;;;;;18.45;52.51;99313.02;105682;1253;74963;-27
2024/04/13 10:14:17;;;;;;;5.70;3.30;;;;;;;18.47;53.17;99306.20;105663;1254;61359;-27
2024/04/13 10:16:45;;;;;;;4.40;3.70;;;;;;;18.41;53.92;99309.16;105653;1259;62880;-25
2024/04/13 10:19:17;;;;;;;5.20;3.90;;;;;;;18.38;53.43;99302.77;105590;1253;77264;-28
2024/04/13 10:21:49;;;;;;;3.70;3.20;;;;;;;18.43;53.20;99302.78;105500;1258;75923;-26
2024/04/13 10:24:17;;;;;;;5.40;3.30;;;;;;;18.58;53.43;99297.92;105557;1253;75218;-27
2024/04/13 10:26:45;;;;;;;8.20;4.30;;;;;;;18.76;52.84;99300.55;105611;1253;61331;-27
2024/04/13 10:29:22;;;;;;;4.20;3.50;;;;;;;18.97;52.47;99290.42;105741;1257;61242;-26
2024/04/13 10:31:50;;;;;;;4.10;3.40;;;;;;;19.14;52.55;99286.85;105651;1253;77063;-27
2024/04/13 10:34:26;;;;;;;6.10;4.20;;;;;;;19.26;52.44;99280.72;105657;1257;76626;-27
2024/04/13 10:36:57;;;;;;;5.80;4.20;;;;;;;19.46;51.06;99273.15;105516;1253;75408;-27
2024/04/13 10:39:25;;;;;;;5.90;4.30;;;;;;;19.42;50.43;99264.92;105784;1253;62542;-27
2024/04/13 10:41:54;;;;;;;3.80;3.30;;;;;;;19.35;51.35;99271.34;105799;1259;62773;-27
2024/04/13 10:44:27;;;;;;;5.00;3.60;;;;;;;19.45;50.96;99258.30;105467;1254;76367;-27
2024/04/13 10:46:54;;;;;;;4.50;3.50;;;;;;;19.81;50.50;99254.29;105863;1254;76737;-27
2024/04/13 10:49:22;;;;;;;4.80;3.50;;;;;;;19.87;49.29;99254.00;105783;1254;74801;-28
2024/04/13 10:51:50;;;;;;;3.50;3.20;;;;;;;20.11;49.11;99249.27;105793;1258;63082;-27
2024/04/13 10:54:18;;;;;;;5.90;3.60;;;;;;;20.33;48.68;99255.13;105779;1258;62462;-27
2024/04/13 10:56:46;;;;;;;4.90;3.10;;;;;;;20.11;48.19;99238.09;105823;1254;76410;-27
2024/04/13 10:59:14;;;;;;;5.50;2.80;;;;;;;20.36;47.57;99242.90;105720;1259;76093;-27
2024/04/13 11:01:42;;;;;;;3.70;2.90;;;;;;;19.85;48.47;99243.13;105866;1256;74056;-27
2024/04/13 11:04:13;;;;;;;6.50;3.00;;;;;;;20.04;47.83;99236.70;105751;1259;62895;-27
2024/04/13 11:06:41;;;;;;;6.10;2.60;;;;;;;20.11;48.05;99242.08;105771;1253;62848;-27
2024/04/13 11:09:10;;;;;;;4.10;2.80;;;;;;;20.01;48.39;99241.26;105858;1257;77430;-27
2024/04/13 11:11:37;;;;;;;6.30;2.80;;;;;;;20.04;49.01;99236.53;105594;1259;74716;-28
2024/04/13 11:14:05;;;;;;;7.00;2.90;;;;;;;19.95;49.07;99237.70;105712;1257;74354;-28
2024/04/13 11:16:33;;;;;;;4.90;2.60;;;;;;;19.52;49.87;99237.61;105811;1257;61966;-26
2024/04/13 11:19:02;;;;;;;5.80;2.70;;;;;;;19.79;49.87;99240.15;105817;1256;62887;-26
2024/04/13 11:21:30;;;;;;;3.90;2.90;;;;;;;19.89;49.26;99232.98;105778;1253;77433;-27
2024/04/13 11:23:58;;;;;;;4.80;2.60;;;;;;;19.89;48.99;99226.32;105704;1253;74363;-27
2024/04/13 11:26:25;;;;;;;5.40;2.50;;;;;;;19.77;48.73;99231.83;105882;1256;76292;-27
2024/04/13 11:28:53;;;;;;;5.60;2.60;;;;;;;19.81;49.03;99229.81;105839;1253;62049;-26